createdAt,value
2018-01-05T00:00:13.775Z,994.89
2018-01-05T00:01:15.635Z,994.95
2018-01-05T00:02:17.511Z,994.93
2018-01-05T00:03:19.308Z,994.93
2018-01-05T00:04:21.141Z,994.85
2018-01-05T00:05:23.038Z,994.87
2018-01-05T00:06:24.938Z,994.88
2018-01-05T00:07:26.822Z,994.93
2018-01-05T00:08:41.007Z,994.95
2018-01-05T00:09:42.882Z,995.05
2018-01-05T00:10:44.774Z,994.86
2018-01-05T00:11:46.661Z,994.96
2018-01-05T00:12:48.474Z,994.97
2018-01-05T00:13:50.308Z,994.93
2018-01-05T00:14:52.232Z,994.91
2018-01-05T00:15:54.113Z,994.89
2018-01-05T00:16:56.001Z,994.91
2018-01-05T00:18:10.156Z,994.88
2018-01-05T00:19:12.020Z,994.78
2018-01-05T00:20:13.904Z,994.83
2018-01-05T00:21:15.777Z,994.85
2018-01-05T00:22:17.585Z,994.79
2018-01-05T00:23:19.419Z,994.90
2018-01-05T00:24:21.314Z,994.88
2018-01-05T00:25:23.186Z,994.83
2018-01-05T00:26:25.078Z,994.84
2018-01-05T00:27:39.247Z,994.93
2018-01-05T00:28:41.114Z,994.93
2018-01-05T00:29:42.969Z,994.97
2018-01-05T00:30:44.838Z,994.94
2018-01-05T00:31:46.654Z,994.94
2018-01-05T00:32:48.450Z,995.02
2018-01-05T00:33:50.312Z,994.99
2018-01-05T00:34:52.212Z,995.04
2018-01-05T00:35:54.098Z,994.98
2018-01-05T00:37:08.253Z,994.97
2018-01-05T00:38:10.134Z,994.94
2018-01-05T00:39:11.996Z,994.96
2018-01-05T00:40:13.865Z,994.90
2018-01-05T00:41:15.690Z,994.88
2018-01-05T00:42:17.496Z,994.87
2018-01-05T00:43:19.354Z,994.91
2018-01-05T00:44:21.238Z,994.98
2018-01-05T00:45:23.126Z,994.89
2018-01-05T00:46:37.279Z,994.91
2018-01-05T00:47:39.171Z,994.94
2018-01-05T00:48:41.029Z,995.00
2018-01-05T00:49:42.895Z,994.98
2018-01-05T00:50:44.718Z,995.08
2018-01-05T00:51:46.538Z,995.06
2018-01-05T00:52:48.421Z,995.02
2018-01-05T00:53:50.305Z,994.97
2018-01-05T00:54:52.188Z,994.98
2018-01-05T00:56:06.320Z,994.97
2018-01-05T00:57:08.181Z,994.92
2018-01-05T00:58:10.042Z,995.03
2018-01-05T00:59:11.904Z,995.02
2018-01-05T01:00:13.724Z,995.02
2018-01-05T01:01:15.535Z,995.03
2018-01-05T01:02:17.358Z,995.14
2018-01-05T01:03:19.233Z,995.21
2018-01-05T01:04:21.131Z,995.26
2018-01-05T01:05:35.234Z,995.27
2018-01-05T01:06:37.112Z,995.36
2018-01-05T01:07:38.979Z,995.28
2018-01-05T01:08:40.857Z,995.34
2018-01-05T01:09:42.657Z,995.22
2018-01-05T01:10:44.479Z,995.19
2018-01-05T01:11:46.363Z,995.29
2018-01-05T01:12:48.242Z,995.29
2018-01-05T01:13:50.106Z,995.30
2018-01-05T01:15:04.258Z,995.35
2018-01-05T01:16:06.145Z,995.39
2018-01-05T01:17:08.029Z,995.32
2018-01-05T01:18:09.910Z,995.32
2018-01-05T01:19:11.715Z,995.36
2018-01-05T01:20:13.533Z,995.38
2018-01-05T01:21:15.416Z,995.43
2018-01-05T01:22:17.280Z,995.43
2018-01-05T01:23:19.162Z,995.52
2018-01-05T01:24:33.296Z,995.66
2018-01-05T01:25:35.159Z,995.62
2018-01-05T01:26:37.022Z,995.74
2018-01-05T01:27:38.886Z,995.79
2018-01-05T01:28:40.703Z,995.82
2018-01-05T01:29:42.499Z,995.80
2018-01-05T01:30:44.382Z,995.81
2018-01-05T01:31:46.245Z,995.86
2018-01-05T01:32:48.105Z,995.91
2018-01-05T01:34:02.243Z,995.97
2018-01-05T01:35:04.125Z,995.99
2018-01-05T01:36:05.988Z,996.08
2018-01-05T01:37:07.865Z,996.00
2018-01-05T01:38:09.665Z,996.03
2018-01-05T01:39:11.468Z,995.98
2018-01-05T01:40:13.346Z,995.96
2018-01-05T01:41:15.211Z,996.04
2018-01-05T01:42:17.074Z,996.07
2018-01-05T01:43:31.223Z,996.07
2018-01-05T01:44:33.089Z,996.12
2018-01-05T01:45:34.953Z,996.12
2018-01-05T01:46:36.893Z,996.10
2018-01-05T01:47:38.646Z,996.11
2018-01-05T01:48:40.444Z,996.09
2018-01-05T01:49:42.302Z,996.15
2018-01-05T01:50:44.186Z,996.14
2018-01-05T01:51:46.068Z,996.15
2018-01-05T01:53:00.222Z,996.10
2018-01-05T01:54:02.107Z,996.11
2018-01-05T01:55:03.994Z,996.18
2018-01-05T01:56:05.872Z,996.21
2018-01-05T01:57:07.676Z,996.17
2018-01-05T01:58:09.493Z,996.26
2018-01-05T01:59:11.351Z,996.30
2018-01-05T02:00:13.213Z,996.33
2018-01-05T02:01:15.076Z,996.35
2018-01-05T02:02:29.230Z,996.38
2018-01-05T02:03:31.113Z,996.36
2018-01-05T02:04:32.993Z,996.35
2018-01-05T02:05:34.854Z,996.36
2018-01-05T02:06:36.671Z,996.37
2018-01-05T02:07:38.468Z,996.39
2018-01-05T02:08:40.334Z,996.45
2018-01-05T02:09:42.215Z,996.45
2018-01-05T02:10:44.078Z,996.40
2018-01-05T02:11:58.233Z,996.41
2018-01-05T02:13:00.119Z,996.37
2018-01-05T02:14:01.998Z,996.49
2018-01-05T02:15:03.878Z,996.46
2018-01-05T02:16:05.682Z,996.45
2018-01-05T02:17:07.502Z,996.46
2018-01-05T02:18:09.385Z,996.45
2018-01-05T02:19:11.267Z,996.39
2018-01-05T02:20:13.151Z,996.43
2018-01-05T02:21:27.301Z,996.49
2018-01-05T02:22:29.162Z,996.53
2018-01-05T02:23:31.025Z,996.56
2018-01-05T02:24:32.907Z,996.53
2018-01-05T02:25:34.729Z,996.54
2018-01-05T02:26:36.548Z,996.59
2018-01-05T02:27:38.436Z,996.52
2018-01-05T02:28:40.315Z,996.56
2018-01-05T02:29:42.181Z,996.52
2018-01-05T02:30:56.389Z,996.50
2018-01-05T02:31:58.212Z,996.48
2018-01-05T02:33:00.070Z,996.45
2018-01-05T02:34:01.936Z,996.53
2018-01-05T02:35:03.754Z,996.50
2018-01-05T02:36:05.549Z,996.53
2018-01-05T02:37:07.413Z,996.57
2018-01-05T02:38:09.273Z,996.58
2018-01-05T02:39:11.142Z,996.60
2018-01-05T02:40:25.274Z,996.57
2018-01-05T02:41:27.133Z,996.64
2018-01-05T02:42:29.012Z,996.61
2018-01-05T02:43:30.872Z,996.55
2018-01-05T02:44:32.676Z,996.61
2018-01-05T02:45:34.465Z,996.65
2018-01-05T02:46:36.332Z,996.67
2018-01-05T02:47:38.215Z,996.64
2018-01-05T02:48:40.075Z,996.68
2018-01-05T02:49:54.209Z,996.66
2018-01-05T02:50:56.072Z,996.72
2018-01-05T02:51:57.929Z,996.74
2018-01-05T02:52:59.813Z,996.71
2018-01-05T02:54:01.638Z,996.76
2018-01-05T02:55:03.454Z,996.65
2018-01-05T02:56:05.321Z,996.67
2018-01-05T02:57:07.200Z,996.71
2018-01-05T02:58:09.061Z,996.65
2018-01-05T02:59:23.213Z,996.76
2018-01-05T03:00:25.100Z,996.76
2018-01-05T03:01:26.951Z,996.78
2018-01-05T03:02:28.809Z,996.76
2018-01-05T03:03:30.611Z,996.79
2018-01-05T03:04:32.425Z,996.79
2018-01-05T03:05:34.290Z,996.80
2018-01-05T03:06:36.174Z,996.89
2018-01-05T03:07:38.057Z,996.84
2018-01-05T03:08:52.210Z,996.88
2018-01-05T03:09:54.090Z,996.90
2018-01-05T03:10:55.949Z,996.88
2018-01-05T03:11:57.814Z,996.86
2018-01-05T03:12:59.633Z,996.94
2018-01-05T03:14:01.449Z,996.93
2018-01-05T03:15:03.315Z,996.98
2018-01-05T03:16:05.196Z,997.03
2018-01-05T03:17:07.054Z,997.02
2018-01-05T03:18:21.193Z,997.11
2018-01-05T03:19:23.072Z,997.13
2018-01-05T03:20:24.934Z,997.13
2018-01-05T03:21:26.795Z,997.17
2018-01-05T03:22:28.590Z,997.11
2018-01-05T03:23:30.391Z,997.13
2018-01-05T03:24:32.275Z,997.12
2018-01-05T03:25:34.136Z,997.12
2018-01-05T03:26:36.018Z,997.11
2018-01-05T03:27:50.149Z,997.16
2018-01-05T03:28:52.032Z,997.15
2018-01-05T03:29:53.893Z,997.11
2018-01-05T03:30:55.754Z,997.12
2018-01-05T03:31:57.556Z,997.13
2018-01-05T03:32:59.376Z,997.16
2018-01-05T03:34:01.268Z,997.15
2018-01-05T03:35:03.144Z,997.22
2018-01-05T03:36:05.009Z,997.20
2018-01-05T03:37:19.153Z,997.18
2018-01-05T03:38:21.018Z,997.21
2018-01-05T03:39:22.875Z,997.24
2018-01-05T03:40:24.736Z,997.27
2018-01-05T03:41:26.534Z,997.33
2018-01-05T03:42:28.335Z,997.27
2018-01-05T03:43:30.218Z,997.29
2018-01-05T03:44:32.101Z,997.39
2018-01-05T03:45:33.958Z,997.30
2018-01-05T03:46:48.094Z,997.29
2018-01-05T03:47:49.955Z,997.32
2018-01-05T03:48:51.817Z,997.42
2018-01-05T03:49:53.698Z,997.40
2018-01-05T03:50:55.500Z,997.38
2018-01-05T03:51:57.320Z,997.46
2018-01-05T03:52:59.181Z,997.45
2018-01-05T03:54:01.066Z,997.48
2018-01-05T03:55:02.949Z,997.48
2018-01-05T03:56:17.085Z,997.51
2018-01-05T03:57:18.964Z,997.56
2018-01-05T03:58:20.826Z,997.63
2018-01-05T03:59:22.707Z,997.66
2018-01-05T04:00:24.502Z,997.60
2018-01-05T04:01:26.306Z,997.66
2018-01-05T04:02:28.162Z,997.71
2018-01-05T04:03:30.042Z,997.62
2018-01-05T04:04:31.904Z,997.78
2018-01-05T04:05:46.055Z,997.77
2018-01-05T04:06:47.918Z,997.80
2018-01-05T04:07:49.778Z,997.78
2018-01-05T04:08:51.664Z,997.71
2018-01-05T04:09:53.465Z,997.77
2018-01-05T04:10:55.263Z,997.75
2018-01-05T04:11:57.145Z,997.81
2018-01-05T04:12:59.001Z,997.82
2018-01-05T04:14:00.868Z,997.83
2018-01-05T04:15:15.020Z,997.84
2018-01-05T04:16:16.899Z,997.84
2018-01-05T04:17:18.764Z,997.78
2018-01-05T04:18:20.649Z,997.83
2018-01-05T04:19:22.449Z,997.83
2018-01-05T04:20:24.268Z,997.87
2018-01-05T04:21:26.130Z,997.92
2018-01-05T04:22:27.989Z,997.95
2018-01-05T04:23:29.844Z,998.00
2018-01-05T04:24:44.019Z,997.95
2018-01-05T04:25:45.884Z,997.97
2018-01-05T04:26:47.764Z,997.97
2018-01-05T04:27:49.622Z,997.98
2018-01-05T04:28:51.428Z,997.97
2018-01-05T04:29:53.240Z,997.97
2018-01-05T04:30:55.106Z,997.99
2018-01-05T04:31:56.980Z,998.08
2018-01-05T04:32:58.859Z,998.01
2018-01-05T04:34:13.043Z,998.05
2018-01-05T04:35:14.902Z,998.07
2018-01-05T04:36:16.764Z,998.06
2018-01-05T04:37:18.643Z,998.13
2018-01-05T04:38:20.441Z,998.13
2018-01-05T04:39:22.235Z,998.13
2018-01-05T04:40:24.103Z,998.22
2018-01-05T04:41:25.986Z,998.26
2018-01-05T04:42:27.848Z,998.25
2018-01-05T04:43:41.984Z,998.24
2018-01-05T04:44:43.865Z,998.23
2018-01-05T04:45:45.722Z,998.26
2018-01-05T04:46:47.606Z,998.25
2018-01-05T04:47:49.420Z,998.22
2018-01-05T04:48:51.227Z,998.24
2018-01-05T04:49:53.112Z,998.27
2018-01-05T04:50:54.991Z,998.21
2018-01-05T04:51:56.854Z,998.30
2018-01-05T04:53:11.007Z,998.28
2018-01-05T04:54:12.889Z,998.37
2018-01-05T04:55:14.771Z,998.45
2018-01-05T04:56:16.652Z,998.40
2018-01-05T04:57:18.449Z,998.44
2018-01-05T04:58:20.249Z,998.46
2018-01-05T04:59:22.129Z,998.52
2018-01-05T05:00:23.991Z,998.66
2018-01-05T05:01:25.849Z,998.59
2018-01-05T05:02:40.003Z,998.57
2018-01-05T05:03:41.882Z,998.65
2018-01-05T05:04:43.743Z,998.62
2018-01-05T05:05:45.623Z,998.69
2018-01-05T05:06:47.417Z,998.70
2018-01-05T05:07:49.214Z,998.63
2018-01-05T05:08:51.068Z,998.68
2018-01-05T05:09:52.924Z,998.67
2018-01-05T05:10:54.819Z,998.68
2018-01-05T05:12:08.915Z,998.72
2018-01-05T05:13:10.774Z,998.71
2018-01-05T05:14:12.637Z,998.69
2018-01-05T05:15:14.520Z,998.67
2018-01-05T05:16:16.339Z,998.70
2018-01-05T05:17:18.138Z,998.69
2018-01-05T05:18:19.998Z,998.68
2018-01-05T05:19:21.860Z,998.69
2018-01-05T05:20:23.743Z,998.64
2018-01-05T05:21:37.869Z,998.62
2018-01-05T05:22:39.730Z,998.68
2018-01-05T05:23:41.592Z,998.73
2018-01-05T05:24:43.469Z,998.69
2018-01-05T05:25:45.272Z,998.74
2018-01-05T05:26:47.089Z,998.71
2018-01-05T05:27:48.948Z,998.74
2018-01-05T05:28:50.807Z,998.77
2018-01-05T05:29:52.661Z,998.74
2018-01-05T05:31:06.791Z,998.79
2018-01-05T05:32:08.654Z,998.70
2018-01-05T05:33:10.536Z,998.67
2018-01-05T05:34:12.421Z,998.68
2018-01-05T05:35:14.244Z,998.54
2018-01-05T05:36:16.062Z,998.62
2018-01-05T05:37:17.947Z,998.73
2018-01-05T05:38:19.828Z,998.82
2018-01-05T05:39:21.685Z,998.85
2018-01-05T05:40:35.819Z,998.75
2018-01-05T05:41:37.680Z,998.71
2018-01-05T05:42:39.546Z,998.73
2018-01-05T05:43:41.430Z,998.67
2018-01-05T05:44:43.255Z,998.73
2018-01-05T05:45:45.046Z,998.76
2018-01-05T05:46:46.908Z,998.73
2018-01-05T05:47:48.776Z,998.73
2018-01-05T05:48:50.659Z,998.78
2018-01-05T05:50:04.856Z,998.72
2018-01-05T05:51:06.715Z,998.80
2018-01-05T05:52:08.571Z,998.83
2018-01-05T05:53:10.433Z,998.88
2018-01-05T05:54:12.278Z,998.94
2018-01-05T05:55:14.105Z,998.94
2018-01-05T05:56:15.962Z,998.82
2018-01-05T05:57:17.842Z,998.83
2018-01-05T05:58:19.701Z,998.83
2018-01-05T05:59:33.915Z,998.90
2018-01-05T06:00:35.788Z,998.95
2018-01-05T06:01:37.647Z,998.92
2018-01-05T06:02:39.512Z,998.93
2018-01-05T06:03:41.332Z,998.92
2018-01-05T06:04:43.157Z,998.92
2018-01-05T06:05:45.041Z,998.89
2018-01-05T06:06:46.921Z,998.89
2018-01-05T06:07:48.778Z,998.90
2018-01-05T06:09:02.965Z,998.96
2018-01-05T06:10:04.846Z,998.91
2018-01-05T06:11:06.728Z,998.85
2018-01-05T06:12:08.612Z,998.86
2018-01-05T06:13:10.434Z,998.84
2018-01-05T06:14:12.250Z,998.79
2018-01-05T06:15:14.113Z,998.81
2018-01-05T06:16:15.994Z,998.85
2018-01-05T06:17:17.858Z,998.89
2018-01-05T06:18:32.014Z,998.96
2018-01-05T06:19:33.892Z,998.98
2018-01-05T06:20:35.750Z,998.98
2018-01-05T06:21:37.621Z,999.03
2018-01-05T06:22:39.438Z,998.99
2018-01-05T06:23:41.237Z,998.95
2018-01-05T06:24:43.121Z,998.97
2018-01-05T06:25:44.998Z,998.93
2018-01-05T06:26:46.862Z,998.90
2018-01-05T06:28:01.039Z,998.88
2018-01-05T06:29:02.899Z,998.90
2018-01-05T06:30:04.753Z,998.96
2018-01-05T06:31:06.613Z,999.00
2018-01-05T06:32:08.415Z,999.03
2018-01-05T06:33:10.238Z,999.09
2018-01-05T06:34:12.126Z,999.17
2018-01-05T06:35:14.009Z,999.11
2018-01-05T06:36:15.889Z,999.11
2018-01-05T06:37:30.039Z,999.16
2018-01-05T06:38:31.897Z,999.13
2018-01-05T06:39:33.759Z,999.16
2018-01-05T06:40:35.621Z,999.14
2018-01-05T06:41:37.423Z,999.20
2018-01-05T06:42:39.226Z,999.18
2018-01-05T06:43:41.104Z,999.20
2018-01-05T06:44:42.993Z,999.13
2018-01-05T06:45:44.854Z,999.14
2018-01-05T06:46:58.990Z,999.14
2018-01-05T06:48:00.853Z,999.21
2018-01-05T06:49:02.709Z,999.25
2018-01-05T06:50:04.574Z,999.22
2018-01-05T06:51:06.398Z,999.19
2018-01-05T06:52:08.212Z,999.27
2018-01-05T06:53:10.077Z,999.26
2018-01-05T06:54:11.962Z,999.32
2018-01-05T06:55:13.820Z,999.37
2018-01-05T06:56:28.022Z,999.49
2018-01-05T06:57:29.881Z,999.42
2018-01-05T06:58:31.737Z,999.45
2018-01-05T06:59:33.604Z,999.55
2018-01-05T07:00:35.404Z,999.50
2018-01-05T07:01:37.222Z,999.53
2018-01-05T07:02:39.089Z,999.59
2018-01-05T07:03:40.976Z,999.58
2018-01-05T07:04:42.859Z,999.58
2018-01-05T07:05:57.044Z,999.55
2018-01-05T07:06:58.932Z,999.53
2018-01-05T07:08:00.814Z,999.57
2018-01-05T07:09:02.675Z,999.58
2018-01-05T07:10:04.481Z,999.66
2018-01-05T07:11:06.304Z,999.65
2018-01-05T07:12:08.146Z,999.64
2018-01-05T07:13:09.991Z,999.56
2018-01-05T07:14:11.809Z,999.60
2018-01-05T07:15:25.951Z,999.63
2018-01-05T07:16:27.830Z,999.56
2018-01-05T07:17:29.696Z,999.59
2018-01-05T07:18:31.558Z,999.62
2018-01-05T07:19:33.362Z,999.63
2018-01-05T07:20:35.165Z,999.60
2018-01-05T07:21:37.050Z,999.64
2018-01-05T07:22:38.913Z,999.55
2018-01-05T07:23:40.779Z,999.55
2018-01-05T07:24:54.981Z,999.53
2018-01-05T07:25:56.848Z,999.50
2018-01-05T07:26:58.711Z,999.55
2018-01-05T07:28:00.607Z,999.58
2018-01-05T07:29:02.390Z,999.60
2018-01-05T07:30:04.196Z,999.59
2018-01-05T07:31:06.056Z,999.61
2018-01-05T07:32:07.944Z,999.71
2018-01-05T07:33:09.833Z,999.69
2018-01-05T07:34:24.031Z,999.71
2018-01-05T07:35:25.901Z,999.67
2018-01-05T07:36:27.780Z,999.66
2018-01-05T07:37:29.650Z,999.68
2018-01-05T07:38:31.452Z,999.72
2018-01-05T07:39:33.276Z,999.71
2018-01-05T07:40:35.162Z,999.65
2018-01-05T07:41:37.049Z,999.63
2018-01-05T07:42:38.937Z,999.70
2018-01-05T07:43:53.093Z,999.70
2018-01-05T07:44:54.961Z,999.80
2018-01-05T07:45:56.848Z,999.80
2018-01-05T07:46:58.730Z,999.80
2018-01-05T07:48:00.536Z,999.84
2018-01-05T07:49:02.341Z,999.88
2018-01-05T07:50:04.233Z,999.86
2018-01-05T07:51:06.120Z,999.93
2018-01-05T07:52:07.982Z,999.91
2018-01-05T07:53:22.119Z,999.92
2018-01-05T07:54:23.982Z,999.85
2018-01-05T07:55:25.846Z,999.84
2018-01-05T07:56:27.733Z,999.81
2018-01-05T07:57:29.563Z,999.80
2018-01-05T07:58:31.388Z,999.88
2018-01-05T07:59:33.274Z,999.83
2018-01-05T08:00:35.173Z,999.78
2018-01-05T08:01:37.033Z,999.77
2018-01-05T08:02:51.194Z,999.74
2018-01-05T08:03:53.059Z,999.75
2018-01-05T08:04:54.945Z,999.78
2018-01-05T08:05:56.814Z,999.77
2018-01-05T08:06:58.611Z,999.75
2018-01-05T08:08:00.416Z,999.75
2018-01-05T08:09:02.276Z,999.82
2018-01-05T08:10:04.151Z,999.77
2018-01-05T08:11:06.038Z,999.79
2018-01-05T08:12:20.193Z,999.73
2018-01-05T08:13:22.062Z,999.71
2018-01-05T08:14:23.950Z,999.81
2018-01-05T08:15:25.842Z,999.75
2018-01-05T08:16:27.657Z,999.74
2018-01-05T08:17:29.497Z,999.78
2018-01-05T08:18:31.385Z,999.82
2018-01-05T08:19:33.279Z,999.88
2018-01-05T08:20:35.163Z,999.95
2018-01-05T08:21:49.304Z,1000.03
2018-01-05T08:22:51.173Z,1000.01
2018-01-05T08:23:53.062Z,1000.02
2018-01-05T08:24:54.968Z,1000.04
2018-01-05T08:25:56.755Z,999.95
2018-01-05T08:26:58.563Z,1000.02
2018-01-05T08:28:00.453Z,1000.01
2018-01-05T08:29:02.340Z,1000.08
2018-01-05T08:30:04.206Z,999.97
2018-01-05T08:31:18.351Z,1000.00
2018-01-05T08:32:20.243Z,1000.02
2018-01-05T08:33:22.133Z,1000.15
2018-01-05T08:34:23.998Z,1000.18
2018-01-05T08:35:25.827Z,1000.06
2018-01-05T08:36:27.628Z,1000.01
2018-01-05T08:37:29.521Z,1000.00
2018-01-05T08:38:31.412Z,1000.05
2018-01-05T08:39:33.302Z,1000.03
2018-01-05T08:40:47.439Z,1000.09
2018-01-05T08:41:49.309Z,1000.15
2018-01-05T08:42:51.174Z,1000.21
2018-01-05T08:43:53.048Z,1000.19
2018-01-05T08:44:54.878Z,1000.18
2018-01-05T08:45:56.707Z,1000.18
2018-01-05T08:46:58.591Z,1000.16
2018-01-05T08:48:00.463Z,1000.18
2018-01-05T08:49:02.327Z,1000.04
2018-01-05T08:50:16.470Z,1000.08
2018-01-05T08:51:18.355Z,1000.09
2018-01-05T08:52:20.226Z,1000.09
2018-01-05T08:53:22.099Z,1000.09
2018-01-05T08:54:23.925Z,1000.11
2018-01-05T08:55:25.751Z,1000.14
2018-01-05T08:56:27.620Z,1000.18
2018-01-05T08:57:29.492Z,1000.21
2018-01-05T08:58:31.358Z,1000.23
2018-01-05T08:59:45.500Z,1000.22
2018-01-05T09:00:47.391Z,1000.16
2018-01-05T09:01:49.258Z,1000.05
2018-01-05T09:02:51.152Z,1000.10
2018-01-05T09:03:52.961Z,1000.10
2018-01-05T09:04:54.786Z,1000.04
2018-01-05T09:05:56.677Z,1000.04
2018-01-05T09:06:58.548Z,999.98
2018-01-05T09:08:00.441Z,1000.02
2018-01-05T09:09:14.580Z,999.91
2018-01-05T09:10:16.470Z,999.92
2018-01-05T09:11:18.335Z,999.90
2018-01-05T09:12:20.206Z,999.83
2018-01-05T09:13:22.040Z,999.83
2018-01-05T09:14:23.868Z,999.84
2018-01-05T09:15:25.758Z,999.86
2018-01-05T09:16:27.631Z,999.90
2018-01-05T09:17:29.524Z,999.88
2018-01-05T09:18:43.686Z,999.87
2018-01-05T09:19:45.548Z,999.89
2018-01-05T09:20:47.410Z,999.89
2018-01-05T09:21:49.282Z,999.98
2018-01-05T09:22:51.115Z,1000.01
2018-01-05T09:23:52.936Z,1000.00
2018-01-05T09:24:54.806Z,1000.04
2018-01-05T09:25:56.701Z,1000.01
2018-01-05T09:26:58.594Z,999.97
2018-01-05T09:28:12.754Z,1000.10
2018-01-05T09:29:14.646Z,1000.14
2018-01-05T09:30:16.533Z,1000.19
2018-01-05T09:31:18.426Z,1000.20
2018-01-05T09:32:20.254Z,1000.09
2018-01-05T09:33:22.062Z,1000.12
2018-01-05T09:34:23.953Z,1000.07
2018-01-05T09:35:25.842Z,1000.10
2018-01-05T09:36:27.735Z,1000.00
2018-01-05T09:37:41.876Z,1000.09
2018-01-05T09:38:43.767Z,1000.10
2018-01-05T09:39:45.635Z,1000.12
2018-01-05T09:40:47.501Z,1000.13
2018-01-05T09:41:49.308Z,1000.11
2018-01-05T09:42:51.138Z,1000.16
2018-01-05T09:43:53.029Z,1000.18
2018-01-05T09:44:54.902Z,1000.09
2018-01-05T09:45:56.795Z,1000.04
2018-01-05T09:47:10.956Z,1000.04
2018-01-05T09:48:12.847Z,1000.16
2018-01-05T09:49:14.717Z,1000.11
2018-01-05T09:50:16.608Z,999.97
2018-01-05T09:51:18.437Z,999.98
2018-01-05T09:52:20.241Z,1000.01
2018-01-05T09:53:22.132Z,1000.05
2018-01-05T09:54:23.996Z,1000.02
2018-01-05T09:55:25.869Z,1000.06
2018-01-05T09:56:40.049Z,1000.11
2018-01-05T09:57:41.942Z,1000.06
2018-01-05T09:58:43.808Z,1000.05
2018-01-05T09:59:45.673Z,1000.11
2018-01-05T10:00:47.486Z,1000.03
2018-01-05T10:01:49.321Z,1000.06
2018-01-05T10:02:51.203Z,1000.05
2018-01-05T10:03:53.114Z,1000.08
2018-01-05T10:04:54.978Z,1000.06
2018-01-05T10:06:09.120Z,1000.18
2018-01-05T10:07:11.006Z,1000.15
2018-01-05T10:08:12.880Z,1000.14
2018-01-05T10:09:14.748Z,1000.11
2018-01-05T10:10:16.579Z,1000.15
2018-01-05T10:11:18.400Z,1000.15
2018-01-05T10:12:20.291Z,1000.13
2018-01-05T10:13:22.183Z,1000.09
2018-01-05T10:14:24.075Z,1000.16
2018-01-05T10:15:38.238Z,1000.10
2018-01-05T10:16:40.100Z,1000.08
2018-01-05T10:17:41.963Z,999.99
2018-01-05T10:18:43.839Z,1000.06
2018-01-05T10:19:45.672Z,1000.08
2018-01-05T10:20:47.499Z,1000.11
2018-01-05T10:21:49.400Z,1000.11
2018-01-05T10:22:51.291Z,1000.08
2018-01-05T10:23:53.159Z,1000.07
2018-01-05T10:25:07.309Z,1000.04
2018-01-05T10:26:09.199Z,1000.08
2018-01-05T10:27:11.072Z,1000.10
2018-01-05T10:28:12.945Z,1000.11
2018-01-05T10:29:14.751Z,1000.08
2018-01-05T10:30:16.573Z,1000.11
2018-01-05T10:31:18.444Z,999.97
2018-01-05T10:32:20.338Z,1000.03
2018-01-05T10:33:22.224Z,1000.14
2018-01-05T10:34:36.367Z,1000.23
2018-01-05T10:35:38.233Z,1000.30
2018-01-05T10:36:40.103Z,1000.30
2018-01-05T10:37:41.993Z,1000.13
2018-01-05T10:38:43.804Z,1000.16
2018-01-05T10:39:45.633Z,1000.24
2018-01-05T10:40:47.526Z,1000.25
2018-01-05T10:41:49.416Z,1000.28
2018-01-05T10:42:51.286Z,1000.18
2018-01-05T10:44:05.427Z,1000.15
2018-01-05T10:45:07.300Z,1000.15
2018-01-05T10:46:09.162Z,1000.02
2018-01-05T10:47:11.037Z,1000.22
2018-01-05T10:48:12.911Z,1000.16
2018-01-05T10:49:14.747Z,1000.15
2018-01-05T10:50:16.625Z,1000.15
2018-01-05T10:51:18.518Z,1000.31
2018-01-05T10:52:20.438Z,1000.24
2018-01-05T10:53:34.624Z,1000.27
2018-01-05T10:54:36.506Z,1000.28
2018-01-05T10:55:38.412Z,1000.16
2018-01-05T10:56:40.304Z,1000.19
2018-01-05T10:57:42.144Z,1000.15
2018-01-05T10:58:44.014Z,1000.15
2018-01-05T10:59:45.878Z,1000.16
2018-01-05T11:00:47.797Z,1000.19
2018-01-05T11:01:49.669Z,1000.22
2018-01-05T11:03:03.836Z,1000.18
2018-01-05T11:04:05.725Z,1000.20
2018-01-05T11:05:07.613Z,1000.24
2018-01-05T11:06:09.486Z,1000.26
2018-01-05T11:07:11.301Z,1000.25
2018-01-05T11:08:13.132Z,1000.26
2018-01-05T11:09:15.031Z,1000.21
2018-01-05T11:10:16.929Z,1000.21
2018-01-05T11:11:18.820Z,1000.20
2018-01-05T11:12:32.986Z,1000.19
2018-01-05T11:13:34.875Z,1000.15
2018-01-05T11:14:36.751Z,1000.21
2018-01-05T11:15:38.611Z,1000.21
2018-01-05T11:16:40.419Z,1000.22
2018-01-05T11:17:42.255Z,1000.15
2018-01-05T11:18:44.146Z,1000.12
2018-01-05T11:19:46.046Z,1000.06
2018-01-05T11:20:47.931Z,1000.18
2018-01-05T11:22:02.090Z,1000.39
2018-01-05T11:23:03.960Z,1000.40
2018-01-05T11:24:05.850Z,1000.37
2018-01-05T11:25:07.718Z,1000.40
2018-01-05T11:26:09.532Z,1000.48
2018-01-05T11:27:11.356Z,1000.44
2018-01-05T11:28:13.246Z,1000.47
2018-01-05T11:29:15.119Z,1000.42
2018-01-05T11:30:17.008Z,1000.36
2018-01-05T11:31:31.151Z,1000.51
2018-01-05T11:32:33.041Z,1000.51
2018-01-05T11:33:34.986Z,1000.51
2018-01-05T11:34:36.796Z,1000.48
2018-01-05T11:35:38.640Z,1000.49
2018-01-05T11:36:40.521Z,1000.45
2018-01-05T11:37:42.344Z,1000.45
2018-01-05T11:38:44.218Z,1000.46
2018-01-05T11:39:46.113Z,1000.43
2018-01-05T11:41:00.260Z,1000.36
2018-01-05T11:42:02.188Z,1000.30
2018-01-05T11:43:04.017Z,1000.28
2018-01-05T11:44:05.882Z,1000.22
2018-01-05T11:45:07.711Z,1000.22
2018-01-05T11:46:09.541Z,1000.22
2018-01-05T11:47:11.432Z,1000.15
2018-01-05T11:48:13.296Z,1000.19
2018-01-05T11:49:15.170Z,1000.14
2018-01-05T11:50:29.317Z,1000.16
2018-01-05T11:51:31.184Z,1000.24
2018-01-05T11:52:33.054Z,1000.31
2018-01-05T11:53:34.944Z,1000.27
2018-01-05T11:54:36.753Z,1000.26
2018-01-05T11:55:38.560Z,1000.24
2018-01-05T11:56:40.459Z,1000.21
2018-01-05T11:57:42.402Z,1000.28
2018-01-05T11:58:44.261Z,1000.23
2018-01-05T11:59:58.464Z,1000.21
2018-01-05T12:01:00.428Z,1000.18
2018-01-05T12:02:02.350Z,1000.16
2018-01-05T12:03:04.201Z,1000.13
2018-01-05T12:04:06.035Z,1000.15
2018-01-05T12:05:07.861Z,1000.21
2018-01-05T12:06:09.718Z,1000.26
2018-01-05T12:07:11.596Z,1000.29
2018-01-05T12:08:13.466Z,1000.32
2018-01-05T12:09:27.603Z,1000.33
2018-01-05T12:10:29.487Z,1000.39
2018-01-05T12:11:31.358Z,1000.40
2018-01-05T12:12:33.245Z,1000.31
2018-01-05T12:13:35.058Z,1000.34
2018-01-05T12:14:36.885Z,1000.42
2018-01-05T12:15:38.800Z,1000.36
2018-01-05T12:16:40.687Z,1000.29
2018-01-05T12:17:42.560Z,1000.25
2018-01-05T12:18:56.713Z,1000.17
2018-01-05T12:19:58.586Z,1000.21
2018-01-05T12:21:00.477Z,1000.18
2018-01-05T12:22:02.349Z,1000.23
2018-01-05T12:23:04.148Z,1000.20
2018-01-05T12:24:05.983Z,1000.18
2018-01-05T12:25:07.882Z,1000.17
2018-01-05T12:26:09.703Z,1000.28
2018-01-05T12:27:11.544Z,1000.31
2018-01-05T12:28:25.711Z,1000.34
2018-01-05T12:29:27.595Z,1000.21
2018-01-05T12:30:29.483Z,1000.25
2018-01-05T12:31:31.351Z,1000.22
2018-01-05T12:32:33.164Z,1000.24
2018-01-05T12:33:34.985Z,1000.27
2018-01-05T12:34:36.851Z,1000.31
2018-01-05T12:35:38.729Z,1000.32
2018-01-05T12:36:40.619Z,1000.18
2018-01-05T12:37:54.762Z,1000.26
2018-01-05T12:38:56.652Z,1000.27
2018-01-05T12:39:58.525Z,1000.31
2018-01-05T12:41:00.441Z,1000.30
2018-01-05T12:42:02.253Z,1000.38
2018-01-05T12:43:04.080Z,1000.39
2018-01-05T12:44:05.973Z,1000.36
2018-01-05T12:45:07.865Z,1000.42
2018-01-05T12:46:09.727Z,1000.37
2018-01-05T12:47:23.871Z,1000.28
2018-01-05T12:48:25.767Z,1000.28
2018-01-05T12:49:27.656Z,1000.26
2018-01-05T12:50:29.549Z,1000.33
2018-01-05T12:51:31.363Z,1000.42
2018-01-05T12:52:33.191Z,1000.47
2018-01-05T12:53:35.079Z,1000.49
2018-01-05T12:54:36.956Z,1000.50
2018-01-05T12:55:38.849Z,1000.54
2018-01-05T12:56:53.010Z,1000.56
2018-01-05T12:57:54.888Z,1000.61
2018-01-05T12:58:56.773Z,1000.60
2018-01-05T12:59:58.664Z,1000.65